sensor_id;sensor_type;location;lat;lon;timestamp;P1;durP1;ratioP1;P2;durP2;ratioP2
9712;SDS011;4895;50.926;6.870;2023-07-02T00:02:23;13.17;;;4.33;;
9712;SDS011;4895;50.926;6.870;2023-07-02T00:04:49;10.10;;;4.13;;
9712;SDS011;4895;50.926;6.870;2023-07-02T00:07:14;10.57;;;4.00;;
9712;SDS011;4895;50.926;6.870;2023-07-02T00:09:40;9.50;;;4.53;;
9712;SDS011;4895;50.926;6.870;2023-07-02T00:12:05;6.00;;;4.10;;
9712;SDS011;4895;50.926;6.870;2023-07-02T00:14:31;7.57;;;3.80;;
9712;SDS011;4895;50.926;6.870;2023-07-02T00:16:56;10.00;;;4.77;;
9712;SDS011;4895;50.926;6.870;2023-07-02T00:19:22;11.63;;;4.30;;
9712;SDS011;4895;50.926;6.870;2023-07-02T00:21:47;13.77;;;4.90;;
9712;SDS011;4895;50.926;6.870;2023-07-02T00:24:13;12.40;;;4.90;;
9712;SDS011;4895;50.926;6.870;2023-07-02T00:26:38;13.87;;;5.03;;
9712;SDS011;4895;50.926;6.870;2023-07-02T00:29:05;7.97;;;3.83;;
9712;SDS011;4895;50.926;6.870;2023-07-02T00:31:31;10.33;;;4.67;;
9712;SDS011;4895;50.926;6.870;2023-07-02T00:33:56;9.90;;;3.43;;
9712;SDS011;4895;50.926;6.870;2023-07-02T00:36:22;11.23;;;4.27;;
9712;SDS011;4895;50.926;6.870;2023-07-02T00:38:47;10.40;;;4.33;;
9712;SDS011;4895;50.926;6.870;2023-07-02T00:41:13;11.63;;;4.60;;
9712;SDS011;4895;50.926;6.870;2023-07-02T00:43:39;12.57;;;4.67;;
9712;SDS011;4895;50.926;6.870;2023-07-02T00:46:08;14.23;;;4.40;;
9712;SDS011;4895;50.926;6.870;2023-07-02T00:48:34;11.07;;;4.10;;
9712;SDS011;4895;50.926;6.870;2023-07-02T00:50:59;13.53;;;5.27;;
9712;SDS011;4895;50.926;6.870;2023-07-02T00:53:25;11.77;;;4.10;;
9712;SDS011;4895;50.926;6.870;2023-07-02T00:55:50;8.00;;;4.27;;
9712;SDS011;4895;50.926;6.870;2023-07-02T00:58:16;13.13;;;4.87;;
9712;SDS011;4895;50.926;6.870;2023-07-02T01:00:42;9.57;;;5.00;;
9712;SDS011;4895;50.926;6.870;2023-07-02T01:03:08;9.23;;;4.80;;
9712;SDS011;4895;50.926;6.870;2023-07-02T01:05:33;13.20;;;4.90;;
9712;SDS011;4895;50.926;6.870;2023-07-02T01:08:04;11.50;;;5.00;;
9712;SDS011;4895;50.926;6.870;2023-07-02T01:10:30;11.13;;;4.87;;
9712;SDS011;4895;50.926;6.870;2023-07-02T01:12:57;13.63;;;5.87;;
9712;SDS011;4895;50.926;6.870;2023-07-02T01:15:25;10.40;;;5.47;;
9712;SDS011;4895;50.926;6.870;2023-07-02T01:17:51;11.07;;;5.73;;
9712;SDS011;4895;50.926;6.870;2023-07-02T01:20:17;11.47;;;6.50;;
9712;SDS011;4895;50.926;6.870;2023-07-02T01:22:44;12.50;;;6.70;;
9712;SDS011;4895;50.926;6.870;2023-07-02T01:25:10;13.40;;;6.30;;
9712;SDS011;4895;50.926;6.870;2023-07-02T01:27:36;12.23;;;6.60;;
9712;SDS011;4895;50.926;6.870;2023-07-02T01:30:01;18.20;;;6.37;;
9712;SDS011;4895;50.926;6.870;2023-07-02T01:32:27;12.87;;;6.30;;
9712;SDS011;4895;50.926;6.870;2023-07-02T01:34:53;14.07;;;7.77;;
9712;SDS011;4895;50.926;6.870;2023-07-02T01:37:18;14.73;;;6.87;;
9712;SDS011;4895;50.926;6.870;2023-07-02T01:39:44;27.10;;;8.50;;
9712;SDS011;4895;50.926;6.870;2023-07-02T01:42:10;24.50;;;7.73;;
9712;SDS011;4895;50.926;6.870;2023-07-02T01:44:35;17.03;;;7.87;;
9712;SDS011;4895;50.926;6.870;2023-07-02T01:47:01;16.73;;;7.97;;
9712;SDS011;4895;50.926;6.870;2023-07-02T01:49:26;15.43;;;7.60;;
9712;SDS011;4895;50.926;6.870;2023-07-02T01:54:20;24.80;;;9.07;;
9712;SDS011;4895;50.926;6.870;2023-07-02T01:56:46;23.23;;;9.83;;
9712;SDS011;4895;50.926;6.870;2023-07-02T01:59:12;22.57;;;10.07;;
9712;SDS011;4895;50.926;6.870;2023-07-02T02:01:37;28.63;;;9.97;;
9712;SDS011;4895;50.926;6.870;2023-07-02T02:04:06;22.00;;;8.83;;
9712;SDS011;4895;50.926;6.870;2023-07-02T02:06:32;27.20;;;9.83;;
9712;SDS011;4895;50.926;6.870;2023-07-02T02:08:57;22.10;;;10.63;;
9712;SDS011;4895;50.926;6.870;2023-07-02T02:11:23;19.00;;;10.13;;
9712;SDS011;4895;50.926;6.870;2023-07-02T02:13:48;23.47;;;11.23;;
9712;SDS011;4895;50.926;6.870;2023-07-02T02:16:14;24.20;;;10.97;;
9712;SDS011;4895;50.926;6.870;2023-07-02T02:18:39;21.03;;;10.50;;
9712;SDS011;4895;50.926;6.870;2023-07-02T02:21:04;20.80;;;10.70;;
9712;SDS011;4895;50.926;6.870;2023-07-02T02:23:30;26.37;;;10.73;;
9712;SDS011;4895;50.926;6.870;2023-07-02T02:25:55;22.37;;;10.40;;
9712;SDS011;4895;50.926;6.870;2023-07-02T02:28:20;30.20;;;11.13;;
9712;SDS011;4895;50.926;6.870;2023-07-02T02:30:46;29.63;;;12.40;;
9712;SDS011;4895;50.926;6.870;2023-07-02T02:33:11;23.00;;;11.57;;
9712;SDS011;4895;50.926;6.870;2023-07-02T02:35:36;23.63;;;11.37;;
9712;SDS011;4895;50.926;6.870;2023-07-02T02:38:02;31.87;;;13.37;;
9712;SDS011;4895;50.926;6.870;2023-07-02T02:40:29;25.83;;;11.93;;
9712;SDS011;4895;50.926;6.870;2023-07-02T02:42:54;24.03;;;11.77;;
9712;SDS011;4895;50.926;6.870;2023-07-02T02:45:19;28.50;;;11.80;;
9712;SDS011;4895;50.926;6.870;2023-07-02T02:47:45;25.03;;;11.23;;
9712;SDS011;4895;50.926;6.870;2023-07-02T02:50:11;24.73;;;12.00;;
9712;SDS011;4895;50.926;6.870;2023-07-02T02:52:37;25.10;;;11.23;;
9712;SDS011;4895;50.926;6.870;2023-07-02T02:55:02;25.10;;;11.43;;
9712;SDS011;4895;50.926;6.870;2023-07-02T02:57:31;35.33;;;12.40;;
9712;SDS011;4895;50.926;6.870;2023-07-02T02:59:56;29.37;;;12.43;;
9712;SDS011;4895;50.926;6.870;2023-07-02T03:02:21;26.73;;;12.33;;
9712;SDS011;4895;50.926;6.870;2023-07-02T03:04:47;28.90;;;12.50;;
9712;SDS011;4895;50.926;6.870;2023-07-02T03:07:14;31.23;;;13.87;;
9712;SDS011;4895;50.926;6.870;2023-07-02T03:09:39;32.07;;;13.27;;
9712;SDS011;4895;50.926;6.870;2023-07-02T03:12:05;29.60;;;12.53;;
9712;SDS011;4895;50.926;6.870;2023-07-02T03:14:31;29.20;;;13.77;;
9712;SDS011;4895;50.926;6.870;2023-07-02T03:16:56;28.53;;;12.97;;
9712;SDS011;4895;50.926;6.870;2023-07-02T03:19:21;30.43;;;12.77;;
9712;SDS011;4895;50.926;6.870;2023-07-02T03:21:47;26.97;;;12.23;;
9712;SDS011;4895;50.926;6.870;2023-07-02T03:24:12;33.13;;;13.17;;
9712;SDS011;4895;50.926;6.870;2023-07-02T03:26:39;35.67;;;12.93;;
9712;SDS011;4895;50.926;6.870;2023-07-02T03:29:05;26.53;;;13.20;;
9712;SDS011;4895;50.926;6.870;2023-07-02T03:31:31;35.03;;;14.90;;
9712;SDS011;4895;50.926;6.870;2023-07-02T03:33:56;28.83;;;13.93;;
9712;SDS011;4895;50.926;6.870;2023-07-02T03:36:21;30.67;;;15.00;;
9712;SDS011;4895;50.926;6.870;2023-07-02T03:38:46;30.10;;;14.77;;
9712;SDS011;4895;50.926;6.870;2023-07-02T03:41:12;32.40;;;13.97;;
9712;SDS011;4895;50.926;6.870;2023-07-02T03:43:37;30.53;;;14.93;;
9712;SDS011;4895;50.926;6.870;2023-07-02T03:46:02;37.00;;;14.70;;
9712;SDS011;4895;50.926;6.870;2023-07-02T03:48:28;30.93;;;14.43;;
9712;SDS011;4895;50.926;6.870;2023-07-02T03:50:53;34.30;;;15.33;;
9712;SDS011;4895;50.926;6.870;2023-07-02T03:53:18;29.33;;;13.93;;
9712;SDS011;4895;50.926;6.870;2023-07-02T03:55:43;32.60;;;15.93;;
9712;SDS011;4895;50.926;6.870;2023-07-02T03:58:09;32.40;;;15.43;;
9712;SDS011;4895;50.926;6.870;2023-07-02T04:00:34;29.73;;;14.20;;
9712;SDS011;4895;50.926;6.870;2023-07-02T04:02:59;30.20;;;15.50;;
9712;SDS011;4895;50.926;6.870;2023-07-02T04:05:25;33.57;;;14.80;;
9712;SDS011;4895;50.926;6.870;2023-07-02T04:07:50;35.80;;;16.77;;
9712;SDS011;4895;50.926;6.870;2023-07-02T04:10:15;47.23;;;16.97;;
9712;SDS011;4895;50.926;6.870;2023-07-02T04:12:40;41.47;;;16.60;;
9712;SDS011;4895;50.926;6.870;2023-07-02T04:15:06;37.80;;;16.30;;
9712;SDS011;4895;50.926;6.870;2023-07-02T04:17:32;34.07;;;15.80;;
9712;SDS011;4895;50.926;6.870;2023-07-02T04:19:59;34.07;;;16.27;;
9712;SDS011;4895;50.926;6.870;2023-07-02T04:22:25;35.60;;;16.80;;
9712;SDS011;4895;50.926;6.870;2023-07-02T04:24:50;33.53;;;16.27;;
9712;SDS011;4895;50.926;6.870;2023-07-02T04:27:16;45.20;;;17.90;;
9712;SDS011;4895;50.926;6.870;2023-07-02T04:29:44;38.27;;;18.00;;
9712;SDS011;4895;50.926;6.870;2023-07-02T04:32:09;41.50;;;17.90;;
9712;SDS011;4895;50.926;6.870;2023-07-02T04:34:35;43.30;;;17.40;;
9712;SDS011;4895;50.926;6.870;2023-07-02T04:37:01;36.37;;;16.67;;
9712;SDS011;4895;50.926;6.870;2023-07-02T04:39:28;46.93;;;17.37;;
9712;SDS011;4895;50.926;6.870;2023-07-02T04:41:53;46.00;;;17.77;;
9712;SDS011;4895;50.926;6.870;2023-07-02T04:44:18;46.70;;;18.40;;
9712;SDS011;4895;50.926;6.870;2023-07-02T04:46:46;43.40;;;17.83;;
9712;SDS011;4895;50.926;6.870;2023-07-02T04:49:12;46.43;;;20.37;;
9712;SDS011;4895;50.926;6.870;2023-07-02T04:51:37;40.33;;;18.40;;
9712;SDS011;4895;50.926;6.870;2023-07-02T04:54:02;46.80;;;20.00;;
9712;SDS011;4895;50.926;6.870;2023-07-02T04:56:28;43.50;;;19.77;;
9712;SDS011;4895;50.926;6.870;2023-07-02T04:58:53;55.47;;;20.10;;
9712;SDS011;4895;50.926;6.870;2023-07-02T05:01:18;42.20;;;18.87;;
9712;SDS011;4895;50.926;6.870;2023-07-02T05:03:44;55.23;;;20.30;;
9712;SDS011;4895;50.926;6.870;2023-07-02T05:06:09;44.70;;;20.47;;
9712;SDS011;4895;50.926;6.870;2023-07-02T05:08:34;46.17;;;20.57;;
9712;SDS011;4895;50.926;6.870;2023-07-02T05:11:01;44.83;;;20.37;;
9712;SDS011;4895;50.926;6.870;2023-07-02T05:13:26;46.07;;;20.87;;
9712;SDS011;4895;50.926;6.870;2023-07-02T05:15:51;43.33;;;20.37;;
9712;SDS011;4895;50.926;6.870;2023-07-02T05:18:17;53.90;;;21.53;;
9712;SDS011;4895;50.926;6.870;2023-07-02T05:20:42;43.50;;;20.20;;
9712;SDS011;4895;50.926;6.870;2023-07-02T05:23:07;49.73;;;21.13;;
9712;SDS011;4895;50.926;6.870;2023-07-02T05:25:32;39.53;;;19.80;;
9712;SDS011;4895;50.926;6.870;2023-07-02T05:27:58;44.67;;;19.57;;
9712;SDS011;4895;50.926;6.870;2023-07-02T05:30:24;40.17;;;20.27;;
9712;SDS011;4895;50.926;6.870;2023-07-02T05:32:49;51.00;;;21.23;;
9712;SDS011;4895;50.926;6.870;2023-07-02T05:35:14;48.70;;;21.47;;
9712;SDS011;4895;50.926;6.870;2023-07-02T05:37:40;45.63;;;20.70;;
9712;SDS011;4895;50.926;6.870;2023-07-02T05:40:05;49.83;;;22.53;;
9712;SDS011;4895;50.926;6.870;2023-07-02T05:42:31;44.13;;;21.67;;
9712;SDS011;4895;50.926;6.870;2023-07-02T05:44:56;41.17;;;20.80;;
9712;SDS011;4895;50.926;6.870;2023-07-02T05:47:21;43.90;;;21.87;;
9712;SDS011;4895;50.926;6.870;2023-07-02T05:49:47;49.10;;;21.00;;
9712;SDS011;4895;50.926;6.870;2023-07-02T05:52:12;42.47;;;20.93;;
9712;SDS011;4895;50.926;6.870;2023-07-02T05:54:40;39.53;;;21.20;;
9712;SDS011;4895;50.926;6.870;2023-07-02T05:57:06;50.37;;;21.03;;
9712;SDS011;4895;50.926;6.870;2023-07-02T05:59:31;63.23;;;21.90;;
9712;SDS011;4895;50.926;6.870;2023-07-02T06:01:56;45.43;;;20.10;;
9712;SDS011;4895;50.926;6.870;2023-07-02T06:04:22;42.30;;;21.40;;
9712;SDS011;4895;50.926;6.870;2023-07-02T06:06:47;46.70;;;22.60;;
9712;SDS011;4895;50.926;6.870;2023-07-02T06:09:12;48.57;;;21.27;;
9712;SDS011;4895;50.926;6.870;2023-07-02T06:11:37;58.33;;;23.27;;
9712;SDS011;4895;50.926;6.870;2023-07-02T06:14:03;49.67;;;22.30;;
9712;SDS011;4895;50.926;6.870;2023-07-02T06:16:28;48.83;;;21.50;;
9712;SDS011;4895;50.926;6.870;2023-07-02T06:18:53;54.03;;;22.23;;
9712;SDS011;4895;50.926;6.870;2023-07-02T06:21:19;46.97;;;21.00;;
9712;SDS011;4895;50.926;6.870;2023-07-02T06:23:45;48.57;;;21.33;;
9712;SDS011;4895;50.926;6.870;2023-07-02T06:26:10;45.37;;;21.17;;
9712;SDS011;4895;50.926;6.870;2023-07-02T06:28:36;50.03;;;22.50;;
9712;SDS011;4895;50.926;6.870;2023-07-02T06:31:01;45.27;;;21.93;;
9712;SDS011;4895;50.926;6.870;2023-07-02T06:33:27;47.00;;;21.20;;
9712;SDS011;4895;50.926;6.870;2023-07-02T06:35:52;46.80;;;21.83;;
9712;SDS011;4895;50.926;6.870;2023-07-02T06:38:17;57.50;;;21.57;;
9712;SDS011;4895;50.926;6.870;2023-07-02T06:40:43;48.97;;;20.17;;
9712;SDS011;4895;50.926;6.870;2023-07-02T06:43:08;55.00;;;21.17;;
9712;SDS011;4895;50.926;6.870;2023-07-02T06:45:33;45.23;;;21.23;;
9712;SDS011;4895;50.926;6.870;2023-07-02T06:47:59;49.77;;;21.20;;
9712;SDS011;4895;50.926;6.870;2023-07-02T06:50:24;49.47;;;20.67;;
9712;SDS011;4895;50.926;6.870;2023-07-02T06:52:49;47.40;;;21.50;;
9712;SDS011;4895;50.926;6.870;2023-07-02T06:55:15;48.37;;;23.57;;
9712;SDS011;4895;50.926;6.870;2023-07-02T06:57:43;50.63;;;22.50;;
9712;SDS011;4895;50.926;6.870;2023-07-02T07:00:12;45.90;;;22.37;;
9712;SDS011;4895;50.926;6.870;2023-07-02T07:02:38;42.53;;;20.03;;
9712;SDS011;4895;50.926;6.870;2023-07-02T07:05:03;43.27;;;19.90;;
9712;SDS011;4895;50.926;6.870;2023-07-02T07:07:29;54.60;;;21.10;;
9712;SDS011;4895;50.926;6.870;2023-07-02T07:09:55;44.53;;;21.07;;
9712;SDS011;4895;50.926;6.870;2023-07-02T07:12:20;46.43;;;21.20;;
9712;SDS011;4895;50.926;6.870;2023-07-02T07:14:45;55.40;;;22.03;;
9712;SDS011;4895;50.926;6.870;2023-07-02T07:17:11;45.77;;;21.20;;
9712;SDS011;4895;50.926;6.870;2023-07-02T07:19:36;41.70;;;20.03;;
9712;SDS011;4895;50.926;6.870;2023-07-02T07:22:01;43.90;;;20.70;;
9712;SDS011;4895;50.926;6.870;2023-07-02T07:24:27;39.23;;;18.60;;
9712;SDS011;4895;50.926;6.870;2023-07-02T07:26:52;42.40;;;19.33;;
9712;SDS011;4895;50.926;6.870;2023-07-02T07:29:17;49.30;;;19.17;;
9712;SDS011;4895;50.926;6.870;2023-07-02T07:31:43;49.57;;;20.27;;
9712;SDS011;4895;50.926;6.870;2023-07-02T07:34:08;41.20;;;17.70;;
9712;SDS011;4895;50.926;6.870;2023-07-02T07:36:34;46.80;;;21.00;;
9712;SDS011;4895;50.926;6.870;2023-07-02T07:38:59;42.07;;;17.57;;
9712;SDS011;4895;50.926;6.870;2023-07-02T07:41:24;44.27;;;17.30;;
9712;SDS011;4895;50.926;6.870;2023-07-02T07:43:50;34.37;;;16.07;;
9712;SDS011;4895;50.926;6.870;2023-07-02T07:46:15;37.20;;;18.60;;
9712;SDS011;4895;50.926;6.870;2023-07-02T07:48:40;40.20;;;18.57;;
9712;SDS011;4895;50.926;6.870;2023-07-02T07:51:06;39.47;;;17.53;;
9712;SDS011;4895;50.926;6.870;2023-07-02T07:53:31;42.17;;;18.47;;
9712;SDS011;4895;50.926;6.870;2023-07-02T07:55:56;46.30;;;18.90;;
9712;SDS011;4895;50.926;6.870;2023-07-02T07:58:22;38.27;;;16.83;;
9712;SDS011;4895;50.926;6.870;2023-07-02T08:00:48;42.70;;;17.90;;
9712;SDS011;4895;50.926;6.870;2023-07-02T08:03:13;38.50;;;16.47;;
9712;SDS011;4895;50.926;6.870;2023-07-02T08:05:38;41.50;;;16.77;;
9712;SDS011;4895;50.926;6.870;2023-07-02T08:08:04;39.53;;;15.97;;
9712;SDS011;4895;50.926;6.870;2023-07-02T08:10:29;41.87;;;17.70;;
9712;SDS011;4895;50.926;6.870;2023-07-02T08:12:54;35.40;;;16.20;;
9712;SDS011;4895;50.926;6.870;2023-07-02T08:15:20;40.30;;;16.13;;
9712;SDS011;4895;50.926;6.870;2023-07-02T08:17:45;35.10;;;14.97;;
9712;SDS011;4895;50.926;6.870;2023-07-02T08:20:11;33.70;;;15.03;;
9712;SDS011;4895;50.926;6.870;2023-07-02T08:22:40;41.60;;;18.37;;
9712;SDS011;4895;50.926;6.870;2023-07-02T08:25:06;35.33;;;15.80;;
9712;SDS011;4895;50.926;6.870;2023-07-02T08:27:31;36.43;;;16.00;;
9712;SDS011;4895;50.926;6.870;2023-07-02T08:29:57;42.30;;;18.37;;
9712;SDS011;4895;50.926;6.870;2023-07-02T08:32:22;38.73;;;17.10;;
9712;SDS011;4895;50.926;6.870;2023-07-02T08:34:47;40.53;;;15.60;;
9712;SDS011;4895;50.926;6.870;2023-07-02T08:37:13;34.27;;;14.90;;
9712;SDS011;4895;50.926;6.870;2023-07-02T08:39:39;35.87;;;14.70;;
9712;SDS011;4895;50.926;6.870;2023-07-02T08:42:05;36.40;;;15.87;;
9712;SDS011;4895;50.926;6.870;2023-07-02T08:44:30;34.67;;;15.63;;
9712;SDS011;4895;50.926;6.870;2023-07-02T08:46:55;42.53;;;16.40;;
9712;SDS011;4895;50.926;6.870;2023-07-02T08:49:22;37.13;;;16.57;;
9712;SDS011;4895;50.926;6.870;2023-07-02T08:51:47;39.23;;;15.87;;
9712;SDS011;4895;50.926;6.870;2023-07-02T08:54:13;37.70;;;16.00;;
9712;SDS011;4895;50.926;6.870;2023-07-02T08:56:39;39.40;;;16.43;;
9712;SDS011;4895;50.926;6.870;2023-07-02T08:59:07;36.60;;;15.00;;
9712;SDS011;4895;50.926;6.870;2023-07-02T09:01:33;42.77;;;16.43;;
9712;SDS011;4895;50.926;6.870;2023-07-02T09:04:14;33.13;;;15.10;;
9712;SDS011;4895;50.926;6.870;2023-07-02T09:06:40;29.47;;;15.10;;
9712;SDS011;4895;50.926;6.870;2023-07-02T09:09:05;34.83;;;15.57;;
9712;SDS011;4895;50.926;6.870;2023-07-02T09:11:30;39.73;;;16.30;;
9712;SDS011;4895;50.926;6.870;2023-07-02T09:13:56;38.07;;;16.03;;
9712;SDS011;4895;50.926;6.870;2023-07-02T09:16:26;31.30;;;16.43;;
9712;SDS011;4895;50.926;6.870;2023-07-02T09:19:05;45.80;;;18.00;;
9712;SDS011;4895;50.926;6.870;2023-07-02T09:21:43;37.57;;;17.57;;
9712;SDS011;4895;50.926;6.870;2023-07-02T09:24:19;41.87;;;17.43;;
9712;SDS011;4895;50.926;6.870;2023-07-02T09:26:50;38.47;;;16.20;;
9712;SDS011;4895;50.926;6.870;2023-07-02T09:29:18;44.17;;;16.60;;
9712;SDS011;4895;50.926;6.870;2023-07-02T09:32:04;39.50;;;16.97;;
9712;SDS011;4895;50.926;6.870;2023-07-02T09:34:33;37.97;;;17.37;;
9712;SDS011;4895;50.926;6.870;2023-07-02T09:37:02;42.67;;;17.97;;
9712;SDS011;4895;50.926;6.870;2023-07-02T09:39:30;37.40;;;16.03;;
9712;SDS011;4895;50.926;6.870;2023-07-02T09:41:57;36.47;;;15.50;;
9712;SDS011;4895;50.926;6.870;2023-07-02T09:44:30;37.77;;;17.00;;
9712;SDS011;4895;50.926;6.870;2023-07-02T09:47:04;36.60;;;16.90;;
9712;SDS011;4895;50.926;6.870;2023-07-02T09:49:41;38.33;;;16.93;;
9712;SDS011;4895;50.926;6.870;2023-07-02T09:52:10;41.20;;;17.63;;
9712;SDS011;4895;50.926;6.870;2023-07-02T09:54:36;36.40;;;17.97;;
9712;SDS011;4895;50.926;6.870;2023-07-02T09:57:02;31.80;;;16.43;;
9712;SDS011;4895;50.926;6.870;2023-07-02T09:59:29;38.80;;;17.87;;
9712;SDS011;4895;50.926;6.870;2023-07-02T10:01:54;35.40;;;17.70;;
9712;SDS011;4895;50.926;6.870;2023-07-02T10:04:21;31.57;;;15.60;;
9712;SDS011;4895;50.926;6.870;2023-07-02T10:06:52;32.43;;;16.10;;
9712;SDS011;4895;50.926;6.870;2023-07-02T10:09:20;33.70;;;16.40;;
9712;SDS011;4895;50.926;6.870;2023-07-02T10:11:46;41.20;;;15.63;;
9712;SDS011;4895;50.926;6.870;2023-07-02T10:14:11;42.33;;;19.03;;
9712;SDS011;4895;50.926;6.870;2023-07-02T10:16:50;39.10;;;18.00;;
9712;SDS011;4895;50.926;6.870;2023-07-02T10:19:15;38.33;;;16.30;;
9712;SDS011;4895;50.926;6.870;2023-07-02T10:21:41;38.60;;;15.83;;
9712;SDS011;4895;50.926;6.870;2023-07-02T10:24:24;34.03;;;14.60;;
9712;SDS011;4895;50.926;6.870;2023-07-02T10:26:57;32.57;;;14.87;;
9712;SDS011;4895;50.926;6.870;2023-07-02T10:29:24;26.90;;;15.20;;
9712;SDS011;4895;50.926;6.870;2023-07-02T10:31:56;35.03;;;14.63;;
9712;SDS011;4895;50.926;6.870;2023-07-02T10:34:32;32.90;;;14.97;;
9712;SDS011;4895;50.926;6.870;2023-07-02T10:36:59;27.10;;;15.10;;
9712;SDS011;4895;50.926;6.870;2023-07-02T10:39:28;34.37;;;13.27;;
9712;SDS011;4895;50.926;6.870;2023-07-02T10:42:03;32.40;;;14.70;;
9712;SDS011;4895;50.926;6.870;2023-07-02T10:44:47;28.80;;;14.70;;
9712;SDS011;4895;50.926;6.870;2023-07-02T10:47:14;31.80;;;16.03;;
9712;SDS011;4895;50.926;6.870;2023-07-02T10:49:39;40.43;;;15.80;;
9712;SDS011;4895;50.926;6.870;2023-07-02T10:52:05;40.03;;;15.80;;
9712;SDS011;4895;50.926;6.870;2023-07-02T10:57:13;37.50;;;14.87;;
9712;SDS011;4895;50.926;6.870;2023-07-02T10:59:40;36.17;;;15.67;;
9712;SDS011;4895;50.926;6.870;2023-07-02T11:02:05;31.33;;;15.17;;
9712;SDS011;4895;50.926;6.870;2023-07-02T11:04:31;36.97;;;14.90;;
9712;SDS011;4895;50.926;6.870;2023-07-02T11:06:57;34.13;;;14.83;;
9712;SDS011;4895;50.926;6.870;2023-07-02T11:09:22;28.57;;;15.17;;
9712;SDS011;4895;50.926;6.870;2023-07-02T11:11:56;28.17;;;14.27;;
9712;SDS011;4895;50.926;6.870;2023-07-02T11:14:31;31.70;;;14.33;;
9712;SDS011;4895;50.926;6.870;2023-07-02T11:17:04;30.50;;;14.70;;
9712;SDS011;4895;50.926;6.870;2023-07-02T11:19:34;38.37;;;15.37;;
9712;SDS011;4895;50.926;6.870;2023-07-02T11:22:00;36.13;;;15.33;;
9712;SDS011;4895;50.926;6.870;2023-07-02T11:24:26;32.37;;;16.83;;
9712;SDS011;4895;50.926;6.870;2023-07-02T11:26:55;27.50;;;14.37;;
9712;SDS011;4895;50.926;6.870;2023-07-02T11:29:20;32.67;;;15.73;;
9712;SDS011;4895;50.926;6.870;2023-07-02T11:31:46;35.07;;;15.63;;
9712;SDS011;4895;50.926;6.870;2023-07-02T11:34:12;36.03;;;16.63;;
9712;SDS011;4895;50.926;6.870;2023-07-02T11:36:40;35.10;;;14.23;;
9712;SDS011;4895;50.926;6.870;2023-07-02T11:39:06;34.10;;;14.70;;
9712;SDS011;4895;50.926;6.870;2023-07-02T11:41:44;35.93;;;15.87;;
9712;SDS011;4895;50.926;6.870;2023-07-02T11:44:10;37.73;;;15.30;;
9712;SDS011;4895;50.926;6.870;2023-07-02T11:46:36;31.87;;;14.20;;
9712;SDS011;4895;50.926;6.870;2023-07-02T11:49:02;29.93;;;13.73;;
9712;SDS011;4895;50.926;6.870;2023-07-02T11:51:30;30.90;;;13.53;;
9712;SDS011;4895;50.926;6.870;2023-07-02T11:53:55;33.07;;;14.13;;
9712;SDS011;4895;50.926;6.870;2023-07-02T11:56:20;29.63;;;14.27;;
9712;SDS011;4895;50.926;6.870;2023-07-02T11:58:46;35.07;;;14.87;;
9712;SDS011;4895;50.926;6.870;2023-07-02T12:01:11;33.90;;;13.87;;
9712;SDS011;4895;50.926;6.870;2023-07-02T12:03:36;34.60;;;14.40;;
9712;SDS011;4895;50.926;6.870;2023-07-02T12:06:02;29.67;;;13.90;;
9712;SDS011;4895;50.926;6.870;2023-07-02T12:08:27;24.10;;;12.20;;
9712;SDS011;4895;50.926;6.870;2023-07-02T12:10:52;35.27;;;12.20;;
9712;SDS011;4895;50.926;6.870;2023-07-02T12:13:17;28.73;;;12.10;;
9712;SDS011;4895;50.926;6.870;2023-07-02T12:15:43;22.37;;;10.70;;
9712;SDS011;4895;50.926;6.870;2023-07-02T12:18:09;21.23;;;9.77;;
9712;SDS011;4895;50.926;6.870;2023-07-02T12:20:34;24.27;;;9.60;;
9712;SDS011;4895;50.926;6.870;2023-07-02T12:23:00;20.63;;;10.40;;
9712;SDS011;4895;50.926;6.870;2023-07-02T12:25:25;21.43;;;9.47;;
9712;SDS011;4895;50.926;6.870;2023-07-02T12:27:51;24.47;;;10.20;;
9712;SDS011;4895;50.926;6.870;2023-07-02T12:30:16;21.10;;;9.30;;
9712;SDS011;4895;50.926;6.870;2023-07-02T12:32:42;31.00;;;9.70;;
9712;SDS011;4895;50.926;6.870;2023-07-02T12:35:08;23.53;;;10.00;;
9712;SDS011;4895;50.926;6.870;2023-07-02T12:37:33;31.53;;;9.47;;
9712;SDS011;4895;50.926;6.870;2023-07-02T12:39:59;29.00;;;10.47;;
9712;SDS011;4895;50.926;6.870;2023-07-02T12:42:24;26.23;;;10.30;;
9712;SDS011;4895;50.926;6.870;2023-07-02T12:44:49;27.80;;;9.40;;
9712;SDS011;4895;50.926;6.870;2023-07-02T12:47:15;25.50;;;10.43;;
9712;SDS011;4895;50.926;6.870;2023-07-02T12:49:40;24.43;;;10.13;;
9712;SDS011;4895;50.926;6.870;2023-07-02T12:52:05;22.73;;;11.20;;
9712;SDS011;4895;50.926;6.870;2023-07-02T12:54:31;23.50;;;10.73;;
9712;SDS011;4895;50.926;6.870;2023-07-02T12:56:56;23.10;;;10.97;;
9712;SDS011;4895;50.926;6.870;2023-07-02T12:59:21;22.30;;;12.43;;
9712;SDS011;4895;50.926;6.870;2023-07-02T13:01:47;26.37;;;12.40;;
9712;SDS011;4895;50.926;6.870;2023-07-02T13:04:12;23.80;;;10.90;;
9712;SDS011;4895;50.926;6.870;2023-07-02T13:06:39;26.40;;;11.67;;
9712;SDS011;4895;50.926;6.870;2023-07-02T13:09:06;30.67;;;11.90;;
9712;SDS011;4895;50.926;6.870;2023-07-02T13:11:32;27.73;;;12.27;;
9712;SDS011;4895;50.926;6.870;2023-07-02T13:13:57;27.40;;;11.20;;
9712;SDS011;4895;50.926;6.870;2023-07-02T13:16:22;31.97;;;13.40;;
9712;SDS011;4895;50.926;6.870;2023-07-02T13:18:49;27.60;;;13.20;;
9712;SDS011;4895;50.926;6.870;2023-07-02T13:21:14;25.30;;;11.80;;
9712;SDS011;4895;50.926;6.870;2023-07-02T13:23:39;39.33;;;13.13;;
9712;SDS011;4895;50.926;6.870;2023-07-02T13:26:05;25.23;;;12.87;;
9712;SDS011;4895;50.926;6.870;2023-07-02T13:28:30;25.87;;;13.70;;
9712;SDS011;4895;50.926;6.870;2023-07-02T13:30:55;28.13;;;12.53;;
9712;SDS011;4895;50.926;6.870;2023-07-02T13:33:20;26.50;;;13.50;;
9712;SDS011;4895;50.926;6.870;2023-07-02T13:35:46;38.60;;;13.13;;
9712;SDS011;4895;50.926;6.870;2023-07-02T13:38:11;31.93;;;12.77;;
9712;SDS011;4895;50.926;6.870;2023-07-02T13:40:36;30.13;;;12.43;;
9712;SDS011;4895;50.926;6.870;2023-07-02T13:43:01;27.77;;;13.43;;
9712;SDS011;4895;50.926;6.870;2023-07-02T13:45:28;28.27;;;13.40;;
9712;SDS011;4895;50.926;6.870;2023-07-02T13:47:53;27.57;;;13.30;;
9712;SDS011;4895;50.926;6.870;2023-07-02T13:50:18;26.90;;;12.40;;
9712;SDS011;4895;50.926;6.870;2023-07-02T13:52:44;25.93;;;11.70;;
9712;SDS011;4895;50.926;6.870;2023-07-02T13:55:11;31.70;;;13.13;;
9712;SDS011;4895;50.926;6.870;2023-07-02T13:57:36;29.53;;;13.00;;
9712;SDS011;4895;50.926;6.870;2023-07-02T14:00:02;33.87;;;12.97;;
9712;SDS011;4895;50.926;6.870;2023-07-02T14:02:29;29.10;;;11.80;;
9712;SDS011;4895;50.926;6.870;2023-07-02T14:04:56;25.30;;;11.97;;
9712;SDS011;4895;50.926;6.870;2023-07-02T14:07:22;30.33;;;12.27;;
9712;SDS011;4895;50.926;6.870;2023-07-02T14:09:47;20.40;;;12.53;;
9712;SDS011;4895;50.926;6.870;2023-07-02T14:12:13;23.33;;;13.13;;
9712;SDS011;4895;50.926;6.870;2023-07-02T14:14:38;31.83;;;12.97;;
9712;SDS011;4895;50.926;6.870;2023-07-02T14:17:04;28.47;;;13.40;;
9712;SDS011;4895;50.926;6.870;2023-07-02T14:19:30;25.73;;;13.10;;
9712;SDS011;4895;50.926;6.870;2023-07-02T14:21:55;33.50;;;13.63;;
9712;SDS011;4895;50.926;6.870;2023-07-02T14:24:20;26.80;;;12.03;;
9712;SDS011;4895;50.926;6.870;2023-07-02T14:26:45;38.63;;;12.70;;
9712;SDS011;4895;50.926;6.870;2023-07-02T14:29:11;29.40;;;13.30;;
9712;SDS011;4895;50.926;6.870;2023-07-02T14:31:36;26.10;;;12.80;;
9712;SDS011;4895;50.926;6.870;2023-07-02T14:34:01;31.20;;;13.13;;
9712;SDS011;4895;50.926;6.870;2023-07-02T14:36:27;29.07;;;13.30;;
9712;SDS011;4895;50.926;6.870;2023-07-02T14:38:52;29.43;;;12.23;;
9712;SDS011;4895;50.926;6.870;2023-07-02T14:41:17;30.87;;;13.23;;
9712;SDS011;4895;50.926;6.870;2023-07-02T14:43:43;26.47;;;11.67;;
9712;SDS011;4895;50.926;6.870;2023-07-02T14:46:08;36.23;;;13.43;;
9712;SDS011;4895;50.926;6.870;2023-07-02T14:48:33;33.03;;;13.27;;
9712;SDS011;4895;50.926;6.870;2023-07-02T14:51:00;33.50;;;13.33;;